createdAt,value
2023-03-07T00:01:08.601Z,99719.66
2023-03-07T00:03:36.831Z,99711.91
2023-03-07T00:06:08.449Z,99715.31
2023-03-07T00:08:35.920Z,99708.44
2023-03-07T00:11:08.575Z,99704.16
2023-03-07T00:13:37.984Z,99693.78
2023-03-07T00:16:12.807Z,99692.91
2023-03-07T00:18:41.219Z,99679.91
2023-03-07T00:21:12.270Z,99680.03
2023-03-07T00:23:41.769Z,99673.97
2023-03-07T00:26:14.161Z,99671.41
2023-03-07T00:28:43.099Z,99668.84
2023-03-07T00:31:11.599Z,99657.53
2023-03-07T00:33:39.425Z,99667.00
2023-03-07T00:36:25.172Z,99665.28
2023-03-07T00:38:52.712Z,99661.88
2023-03-07T00:41:23.309Z,99661.06
2023-03-07T00:43:50.500Z,99653.38
2023-03-07T00:46:20.221Z,99654.25
2023-03-07T00:48:48.007Z,99647.38
2023-03-07T00:51:18.839Z,99623.22
2023-03-07T00:53:46.533Z,99634.50
2023-03-07T00:56:17.113Z,99632.78
2023-03-07T00:58:45.989Z,99622.47
2023-03-07T01:01:16.235Z,99628.50
2023-03-07T01:03:44.139Z,99618.22
2023-03-07T01:06:16.370Z,99624.19
2023-03-07T01:08:44.149Z,99597.44
2023-03-07T01:11:12.705Z,99618.13
2023-03-07T01:13:40.331Z,99602.78
2023-03-07T01:16:32.466Z,99596.78
2023-03-07T01:19:04.196Z,99583.09
2023-03-07T01:21:35.595Z,99576.25
2023-03-07T01:24:12.331Z,99566.84
2023-03-07T01:26:39.405Z,99554.03
2023-03-07T01:29:07.791Z,99549.72
2023-03-07T01:31:36.423Z,99539.44
2023-03-07T01:34:04.057Z,99532.59
2023-03-07T01:36:35.619Z,99523.19
2023-03-07T01:39:14.118Z,99498.38
2023-03-07T01:41:46.206Z,99486.31
2023-03-07T01:44:21.902Z,99494.97
2023-03-07T01:46:56.192Z,99483.84
2023-03-07T01:49:36.567Z,99468.47
2023-03-07T01:52:15.217Z,99459.06
2023-03-07T01:54:52.190Z,99435.00
2023-03-07T01:57:28.492Z,99445.47
2023-03-07T01:59:59.967Z,99431.78
2023-03-07T02:02:29.305Z,99424.97
2023-03-07T02:05:16.487Z,99424.13
2023-03-07T02:07:49.570Z,99425.88
2023-03-07T02:10:22.655Z,99420.75
2023-03-07T02:12:52.224Z,99417.38
2023-03-07T02:15:19.253Z,99408.88
2023-03-07T02:17:46.531Z,99389.94
2023-03-07T02:20:50.422Z,99382.44
2023-03-07T02:24:02.098Z,99373.91
2023-03-07T02:26:28.869Z,99371.34
2023-03-07T02:28:56.189Z,99373.06
2023-03-07T02:31:23.946Z,99361.13
2023-03-07T02:33:50.941Z,99351.75
2023-03-07T02:36:24.062Z,99325.22
2023-03-07T02:39:02.634Z,99316.69
2023-03-07T02:41:32.432Z,99333.88
2023-03-07T02:44:02.703Z,99323.66
2023-03-07T02:46:30.340Z,99316.84
2023-03-07T02:48:57.399Z,99316.03
2023-03-07T02:51:24.449Z,99305.78
2023-03-07T02:53:51.575Z,99292.97
2023-03-07T02:56:18.442Z,99293.00
2023-03-07T02:58:45.978Z,99283.63
2023-03-07T03:01:13.358Z,99254.44
2023-03-07T03:03:40.303Z,99268.25
2023-03-07T03:06:07.191Z,99264.00
2023-03-07T03:08:34.118Z,99246.00
2023-03-07T03:11:00.997Z,99247.75
2023-03-07T03:13:28.691Z,99235.75
2023-03-07T03:15:57.044Z,99234.94
2023-03-07T03:18:27.721Z,99228.16
2023-03-07T03:20:54.753Z,99218.72
2023-03-07T03:23:21.824Z,99216.19
2023-03-07T03:25:59.645Z,99211.91
2023-03-07T03:28:29.279Z,99205.03
2023-03-07T03:31:08.806Z,99195.56
2023-03-07T03:33:36.819Z,99198.13
2023-03-07T03:36:11.175Z,99195.50
2023-03-07T03:38:39.237Z,99184.38
2023-03-07T03:41:12.879Z,99188.66
2023-03-07T03:43:40.212Z,99179.22
2023-03-07T03:46:08.024Z,99169.81
2023-03-07T03:48:36.694Z,99168.09
2023-03-07T03:51:08.432Z,99157.81
2023-03-07T03:53:37.833Z,99148.34
2023-03-07T03:56:12.154Z,99154.41
2023-03-07T03:58:40.776Z,99146.72
2023-03-07T04:01:11.837Z,99145.84
2023-03-07T04:03:42.574Z,99132.16
2023-03-07T04:06:18.572Z,99126.19
2023-03-07T04:08:46.695Z,99116.75
2023-03-07T04:11:14.609Z,99123.59
2023-03-07T04:13:41.877Z,99100.47
2023-03-07T04:16:09.758Z,99099.66
2023-03-07T04:18:37.037Z,99094.50
2023-03-07T04:21:05.965Z,99083.41
2023-03-07T04:23:33.973Z,99075.69
2023-03-07T04:26:04.230Z,99073.94
2023-03-07T04:28:45.232Z,99065.41
2023-03-07T04:31:38.154Z,99054.25
2023-03-07T04:34:06.183Z,99043.13
2023-03-07T04:36:33.673Z,99039.72
2023-03-07T04:39:00.602Z,99019.16
2023-03-07T04:41:27.485Z,98999.38
2023-03-07T04:44:04.505Z,99011.34
2023-03-07T04:46:31.432Z,98997.72
2023-03-07T04:48:58.785Z,98995.13
2023-03-07T04:51:25.734Z,98990.88
2023-03-07T04:53:52.647Z,98984.91
2023-03-07T04:56:19.533Z,98971.16
2023-03-07T04:58:47.674Z,98963.50
2023-03-07T05:01:15.332Z,98952.34
2023-03-07T05:03:42.927Z,98951.50
2023-03-07T05:06:14.955Z,98939.53
2023-03-07T05:08:45.838Z,98940.38
2023-03-07T05:11:12.850Z,98916.38
2023-03-07T05:13:39.722Z,98934.47
2023-03-07T05:16:07.316Z,98924.19
2023-03-07T05:18:34.223Z,98926.75
2023-03-07T05:21:01.469Z,98925.91
2023-03-07T05:23:29.149Z,98926.78
2023-03-07T05:25:56.587Z,98918.25
2023-03-07T05:28:24.832Z,98909.69
2023-03-07T05:30:52.755Z,98906.25
2023-03-07T05:33:20.131Z,98913.97
2023-03-07T05:35:48.164Z,98912.31
2023-03-07T05:38:15.851Z,98909.75
2023-03-07T05:40:43.142Z,98888.31
2023-03-07T05:43:11.510Z,98899.47
2023-03-07T05:45:38.810Z,98913.22
2023-03-07T05:48:06.008Z,98902.06
2023-03-07T05:50:32.930Z,98896.97
2023-03-07T05:53:00.114Z,98884.09
2023-03-07T05:55:30.343Z,98899.53
2023-03-07T05:57:57.888Z,98891.00
2023-03-07T06:00:25.633Z,98889.28
2023-03-07T06:03:05.127Z,98882.41
2023-03-07T06:05:33.061Z,98888.47
2023-03-07T06:08:00.118Z,98885.91
2023-03-07T06:10:27.400Z,98882.47
2023-03-07T06:12:54.750Z,98880.75
2023-03-07T06:15:24.345Z,98870.47
2023-03-07T06:17:55.277Z,98868.78
2023-03-07T06:20:22.232Z,98872.22
2023-03-07T06:22:49.778Z,98864.53
2023-03-07T06:25:17.105Z,98863.69
2023-03-07T06:27:44.273Z,98867.13
2023-03-07T06:30:12.597Z,98859.44
2023-03-07T06:32:40.276Z,98854.28
2023-03-07T06:35:07.995Z,98869.72
2023-03-07T06:37:34.896Z,98878.31
2023-03-07T06:40:06.247Z,98865.44
2023-03-07T06:42:35.564Z,98868.03
2023-03-07T06:45:03.467Z,98879.19
2023-03-07T06:47:30.394Z,98877.47
2023-03-07T06:49:57.467Z,98876.63
2023-03-07T06:52:24.645Z,98868.03
2023-03-07T06:54:52.270Z,98874.91
2023-03-07T06:57:19.264Z,98871.47
2023-03-07T06:59:46.143Z,98874.91
2023-03-07T07:02:15.068Z,98863.78
2023-03-07T07:04:42.136Z,98869.78
2023-03-07T07:07:09.156Z,98859.47
2023-03-07T07:09:36.222Z,98871.50
2023-03-07T07:12:04.942Z,98861.19
2023-03-07T07:14:34.542Z,98865.50
2023-03-07T07:17:03.309Z,98856.03
2023-03-07T07:19:30.258Z,98842.34
2023-03-07T07:21:58.696Z,98856.91
2023-03-07T07:24:25.620Z,98847.47
2023-03-07T07:26:53.747Z,98851.75
2023-03-07T07:29:21.090Z,98861.19
2023-03-07T07:31:49.813Z,98854.34
2023-03-07T07:34:18.759Z,98847.44
2023-03-07T07:36:46.291Z,98842.31
2023-03-07T07:39:15.172Z,98831.97
2023-03-07T07:41:44.513Z,98821.66
2023-03-07T07:44:12.386Z,98820.78
2023-03-07T07:46:53.653Z,98816.50
2023-03-07T07:49:21.066Z,98818.19
2023-03-07T07:51:47.996Z,98805.28
2023-03-07T07:54:14.923Z,98806.16
2023-03-07T07:56:42.098Z,98808.72
2023-03-07T07:59:09.199Z,98819.88
2023-03-07T08:01:36.235Z,98807.84
2023-03-07T08:04:03.107Z,98805.28
2023-03-07T08:06:30.772Z,98804.41
2023-03-07T08:08:57.944Z,98818.13
2023-03-07T08:11:24.884Z,98806.09
2023-03-07T08:13:51.924Z,98795.72
2023-03-07T08:16:22.432Z,98791.44
2023-03-07T08:18:55.917Z,98782.81
2023-03-07T08:21:24.242Z,98778.44
2023-03-07T08:23:51.914Z,98782.72
2023-03-07T08:26:18.782Z,98787.84
2023-03-07T08:28:46.017Z,98780.03
2023-03-07T08:31:18.668Z,98786.88
2023-03-07T08:33:50.783Z,98773.09
2023-03-07T08:36:18.226Z,98769.59
2023-03-07T08:38:51.565Z,98786.75
2023-03-07T08:41:20.464Z,98776.41
2023-03-07T08:43:47.392Z,98778.09
2023-03-07T08:46:14.482Z,98784.97
2023-03-07T08:48:41.399Z,98779.00
2023-03-07T08:51:12.085Z,98782.44
2023-03-07T08:53:39.082Z,98783.31
2023-03-07T08:56:07.645Z,98777.25
2023-03-07T08:58:34.741Z,98788.47
2023-03-07T09:01:01.981Z,98786.75
2023-03-07T09:03:28.827Z,98778.16
2023-03-07T09:05:55.738Z,98782.47
2023-03-07T09:08:22.768Z,98779.03
2023-03-07T09:10:49.761Z,98786.78
2023-03-07T09:13:18.566Z,98770.47
2023-03-07T09:15:45.855Z,98778.13
2023-03-07T09:18:12.940Z,98774.69
2023-03-07T09:20:40.366Z,98771.19
2023-03-07T09:23:08.363Z,98742.81
2023-03-07T09:25:35.270Z,98762.44
2023-03-07T09:28:02.167Z,98758.94
2023-03-07T09:30:29.082Z,98759.75
2023-03-07T09:32:57.066Z,98749.38
2023-03-07T09:35:24.734Z,98751.84
2023-03-07T09:37:51.598Z,98754.41
2023-03-07T09:40:25.457Z,98744.06
2023-03-07T09:43:10.523Z,98754.31
2023-03-07T09:46:30.093Z,98759.47
2023-03-07T09:49:16.985Z,98755.97
2023-03-07T09:51:46.726Z,98761.13
2023-03-07T09:54:21.693Z,98751.56
2023-03-07T09:57:02.314Z,98757.53
2023-03-07T09:59:58.684Z,98760.03
2023-03-07T10:02:48.359Z,98753.91
2023-03-07T10:05:35.441Z,98762.41
2023-03-07T10:08:05.083Z,98748.53
2023-03-07T10:10:50.198Z,98754.44
2023-03-07T10:14:09.533Z,98770.81
2023-03-07T10:17:11.153Z,98743.28
2023-03-07T10:19:49.874Z,98755.22
2023-03-07T10:22:42.834Z,98753.44
2023-03-07T10:25:31.305Z,98743.81
2023-03-07T10:28:25.849Z,98762.78
2023-03-07T10:30:59.164Z,98739.53
2023-03-07T10:33:27.628Z,98739.59
2023-03-07T10:36:06.268Z,98748.09
2023-03-07T10:39:30.222Z,98754.97
2023-03-07T10:41:57.538Z,98746.31
2023-03-07T10:44:28.488Z,98748.03
2023-03-07T10:46:59.167Z,98751.44
2023-03-07T10:49:37.943Z,98756.59
2023-03-07T10:52:20.130Z,98754.84
2023-03-07T10:54:47.025Z,98741.84
2023-03-07T10:57:18.899Z,98743.53
2023-03-07T10:59:48.551Z,98752.09
2023-03-07T11:02:45.401Z,98741.75
2023-03-07T11:05:24.402Z,98742.53
2023-03-07T11:07:51.316Z,98735.66
2023-03-07T11:10:40.087Z,98746.78
2023-03-07T11:13:19.288Z,98737.28
2023-03-07T11:15:46.920Z,98735.34
2023-03-07T11:18:42.117Z,98743.94
2023-03-07T11:21:34.095Z,98737.88
2023-03-07T11:24:25.888Z,98736.97
2023-03-07T11:26:58.414Z,98729.13
2023-03-07T11:29:28.268Z,98738.59
2023-03-07T11:32:10.745Z,98740.31
2023-03-07T11:34:49.745Z,98742.88
2023-03-07T11:37:31.288Z,98746.31
2023-03-07T11:40:18.537Z,98739.31
2023-03-07T11:43:10.779Z,98736.63
2023-03-07T11:46:04.025Z,98742.59
2023-03-07T11:49:00.372Z,98733.03
2023-03-07T11:51:42.321Z,98744.28
2023-03-07T11:54:56.261Z,98745.19
2023-03-07T11:57:54.078Z,98748.66
2023-03-07T12:00:55.706Z,98746.06
2023-03-07T12:04:00.766Z,98746.00
2023-03-07T12:06:56.795Z,98733.00
2023-03-07T12:09:33.839Z,98746.78
2023-03-07T12:12:53.708Z,98740.72
2023-03-07T12:15:56.585Z,98748.56
2023-03-07T12:19:19.449Z,98741.66
2023-03-07T12:22:15.104Z,98751.19
2023-03-07T12:24:50.118Z,98752.06
2023-03-07T12:27:46.046Z,98759.88
2023-03-07T12:30:33.249Z,98785.00
2023-03-07T12:33:00.285Z,98804.13
2023-03-07T12:35:37.140Z,98809.56
2023-03-07T12:38:36.587Z,98814.13
2023-03-07T12:41:39.672Z,98821.34
2023-03-07T12:44:28.642Z,98795.69
2023-03-07T12:47:08.890Z,98803.72
2023-03-07T12:50:16.254Z,98812.53
2023-03-07T12:53:16.132Z,98811.91
2023-03-07T12:55:49.584Z,98810.44
2023-03-07T12:58:39.658Z,98813.16
2023-03-07T13:01:27.368Z,98807.25
2023-03-07T13:04:09.122Z,98798.69
2023-03-07T13:06:39.741Z,98796.13
2023-03-07T13:09:06.708Z,98799.59
2023-03-07T13:11:34.791Z,98787.50
2023-03-07T13:14:04.315Z,98798.66
2023-03-07T13:16:40.229Z,98796.91
2023-03-07T13:19:38.970Z,98790.84
2023-03-07T13:22:14.995Z,98799.44
2023-03-07T13:24:43.871Z,98808.91
2023-03-07T13:27:23.223Z,98802.81
2023-03-07T13:30:08.163Z,98795.91
2023-03-07T13:32:55.890Z,98800.16
2023-03-07T13:35:29.025Z,98792.38
2023-03-07T13:38:11.173Z,98807.00
2023-03-07T13:40:46.681Z,98808.66
2023-03-07T13:43:19.620Z,98800.84
2023-03-07T13:45:50.482Z,98808.50
2023-03-07T13:48:20.054Z,98793.78
2023-03-07T13:50:49.537Z,98789.47
2023-03-07T13:53:38.935Z,98780.78
2023-03-07T13:56:19.851Z,98795.44
2023-03-07T13:58:57.878Z,98787.69
2023-03-07T14:02:10.640Z,98786.78
2023-03-07T14:04:54.199Z,98795.38
2023-03-07T14:07:35.818Z,98791.09
2023-03-07T14:10:27.950Z,98807.41
2023-03-07T14:13:16.490Z,98804.78
2023-03-07T14:16:19.288Z,98800.50
2023-03-07T14:19:06.397Z,98825.56
2023-03-07T14:21:55.293Z,98814.41
2023-03-07T14:24:55.724Z,98807.53
2023-03-07T14:27:22.632Z,98813.59
2023-03-07T14:29:57.017Z,98807.63
2023-03-07T14:32:32.077Z,98816.25
2023-03-07T14:34:59.767Z,98814.56
2023-03-07T14:37:31.156Z,98819.81
2023-03-07T14:40:31.827Z,98820.69
2023-03-07T14:43:21.665Z,98816.41
2023-03-07T14:46:46.303Z,98819.91
2023-03-07T14:49:57.733Z,98826.78
2023-03-07T14:52:31.219Z,98837.97
2023-03-07T14:55:05.443Z,98836.28
2023-03-07T14:57:37.945Z,98836.31
2023-03-07T15:00:15.408Z,98833.69
2023-03-07T15:02:57.547Z,98832.00
2023-03-07T15:05:37.620Z,98844.94
2023-03-07T15:08:26.738Z,98848.41
2023-03-07T15:11:16.265Z,98849.25
2023-03-07T15:14:00.935Z,98852.69
2023-03-07T15:16:49.527Z,98852.69
2023-03-07T15:20:00.263Z,98855.25
2023-03-07T15:22:32.508Z,98840.63
2023-03-07T15:24:59.639Z,98847.47
2023-03-07T15:27:30.689Z,98846.63
2023-03-07T15:30:00.464Z,98854.34
2023-03-07T15:32:40.583Z,98849.13
2023-03-07T15:35:10.975Z,98851.72
2023-03-07T15:38:07.544Z,98852.56
2023-03-07T15:40:36.124Z,98852.56
2023-03-07T15:43:04.382Z,98857.72
2023-03-07T15:45:34.305Z,98868.00
2023-03-07T15:48:24.956Z,98865.41
2023-03-07T15:50:58.213Z,98862.81
2023-03-07T15:53:33.101Z,98862.88
2023-03-07T15:56:03.646Z,98881.78
2023-03-07T15:58:31.432Z,98884.38
2023-03-07T16:01:21.892Z,98881.78
2023-03-07T16:03:54.140Z,98883.53
2023-03-07T16:06:40.644Z,98887.84
2023-03-07T16:09:13.572Z,98888.72
2023-03-07T16:11:41.895Z,98886.16
2023-03-07T16:14:22.550Z,98877.56
2023-03-07T16:16:49.999Z,98892.22
2023-03-07T16:19:17.110Z,98893.09
2023-03-07T16:21:44.015Z,98894.84
2023-03-07T16:24:10.898Z,98911.25
2023-03-07T16:26:39.328Z,98902.63
2023-03-07T16:29:08.822Z,98920.75
2023-03-07T16:31:35.790Z,98925.94
2023-03-07T16:34:02.715Z,98925.16
2023-03-07T16:36:29.616Z,98928.66
2023-03-07T16:38:56.505Z,98938.16
2023-03-07T16:41:23.422Z,98936.44
2023-03-07T16:43:56.310Z,98939.91
2023-03-07T16:46:24.261Z,98947.69
2023-03-07T16:48:51.387Z,98940.78
2023-03-07T16:51:21.624Z,98957.19
2023-03-07T16:53:50.173Z,98953.78
2023-03-07T16:56:40.549Z,98961.53
2023-03-07T16:59:08.440Z,98956.38
2023-03-07T17:01:35.535Z,98962.44
2023-03-07T17:04:02.428Z,98962.44
2023-03-07T17:06:38.809Z,98969.34
2023-03-07T17:09:09.530Z,98975.41
2023-03-07T17:11:39.356Z,98974.53
2023-03-07T17:14:11.552Z,98978.00
2023-03-07T17:16:45.301Z,98986.59
2023-03-07T17:19:28.306Z,98998.66
2023-03-07T17:21:57.517Z,99002.09
2023-03-07T17:24:25.317Z,99006.41
2023-03-07T17:26:53.748Z,99008.13
2023-03-07T17:29:45.609Z,99011.56
2023-03-07T17:32:12.622Z,99016.72
2023-03-07T17:34:39.708Z,99018.44
2023-03-07T17:37:07.591Z,99021.91
2023-03-07T17:39:35.207Z,99010.72
2023-03-07T17:42:03.212Z,99027.94
2023-03-07T17:44:30.941Z,99030.50
2023-03-07T17:46:58.475Z,99032.22
2023-03-07T17:49:28.457Z,99036.50
2023-03-07T17:51:55.396Z,99039.09
2023-03-07T17:54:22.236Z,99050.25
2023-03-07T17:56:49.118Z,99045.09
2023-03-07T17:59:16.065Z,99050.28
2023-03-07T18:01:43.123Z,99053.72
2023-03-07T18:04:10.263Z,99047.72
2023-03-07T18:06:39.412Z,99048.56
2023-03-07T18:09:08.250Z,99054.56
2023-03-07T18:11:35.885Z,99048.53
2023-03-07T18:14:03.564Z,99051.09
2023-03-07T18:16:31.064Z,99033.03
2023-03-07T18:19:00.554Z,99053.66
2023-03-07T18:21:29.777Z,99056.22
2023-03-07T18:23:57.780Z,99051.94
2023-03-07T18:26:25.213Z,99057.09
2023-03-07T18:28:56.243Z,99059.66
2023-03-07T18:31:28.096Z,99049.31
2023-03-07T18:33:55.440Z,99074.25
2023-03-07T18:36:24.880Z,99075.09
2023-03-07T18:38:52.162Z,99088.00
2023-03-07T18:41:23.110Z,99081.06
2023-03-07T18:43:50.166Z,99085.38
2023-03-07T18:46:20.445Z,99089.66
2023-03-07T18:48:48.132Z,99077.59
2023-03-07T18:51:26.609Z,99088.75
2023-03-07T18:53:56.897Z,99094.75
2023-03-07T18:56:24.488Z,99088.75
2023-03-07T18:58:58.833Z,99085.28
2023-03-07T19:01:37.234Z,99080.97
2023-03-07T19:04:05.326Z,99089.53
2023-03-07T19:06:39.625Z,99086.97
2023-03-07T19:09:09.655Z,99096.38
2023-03-07T19:11:36.682Z,99099.81
2023-03-07T19:14:03.592Z,99098.97
2023-03-07T19:16:30.477Z,99105.78
2023-03-07T19:18:59.833Z,99101.47
2023-03-07T19:21:29.444Z,99118.63
2023-03-07T19:23:59.270Z,99118.66
2023-03-07T19:26:26.408Z,99128.06
2023-03-07T19:28:55.162Z,99128.91
2023-03-07T19:31:31.175Z,99121.13
2023-03-07T19:33:59.280Z,99135.69
2023-03-07T19:36:28.728Z,99137.41
2023-03-07T19:38:58.980Z,99149.44
2023-03-07T19:41:28.302Z,99141.72
2023-03-07T19:44:00.264Z,99143.41
2023-03-07T19:46:27.828Z,99144.25
2023-03-07T19:48:54.730Z,99139.09
2023-03-07T19:51:25.322Z,99143.34
2023-03-07T19:53:56.840Z,99151.09
2023-03-07T19:56:32.021Z,99142.47
2023-03-07T19:59:00.899Z,99142.44
2023-03-07T20:01:29.807Z,99154.41
2023-03-07T20:03:57.243Z,99153.53
2023-03-07T20:06:29.938Z,99149.22
2023-03-07T20:08:58.993Z,99144.88
2023-03-07T20:11:29.879Z,99156.91
2023-03-07T20:14:00.264Z,99162.88
2023-03-07T20:16:29.227Z,99172.28
2023-03-07T20:19:00.102Z,99171.41
2023-03-07T20:21:28.670Z,99177.38
2023-03-07T20:23:59.220Z,99180.78
2023-03-07T20:26:31.581Z,99181.63
2023-03-07T20:28:59.650Z,99184.19
2023-03-07T20:31:26.813Z,99191.88
2023-03-07T20:33:54.696Z,99187.59
2023-03-07T20:36:25.472Z,99189.28
2023-03-07T20:38:55.823Z,99187.53
2023-03-07T20:41:26.479Z,99190.94
2023-03-07T20:44:00.894Z,99197.78
2023-03-07T20:46:28.256Z,99199.50
2023-03-07T20:48:56.294Z,99205.50
2023-03-07T20:51:27.195Z,99202.88
2023-03-07T20:53:58.221Z,99202.00
2023-03-07T20:56:28.089Z,99204.56
2023-03-07T20:58:56.073Z,99210.53
2023-03-07T21:01:25.559Z,99206.22
2023-03-07T21:03:53.710Z,99218.19
2023-03-07T21:06:21.097Z,99216.44
2023-03-07T21:08:48.310Z,99229.28
2023-03-07T21:11:18.655Z,99226.69
2023-03-07T21:13:48.140Z,99221.47
2023-03-07T21:16:21.033Z,99230.94
2023-03-07T21:18:48.868Z,99232.63
2023-03-07T21:21:19.659Z,99242.91
2023-03-07T21:23:47.347Z,99237.75
2023-03-07T21:26:17.666Z,99242.00
2023-03-07T21:28:45.281Z,99241.16
2023-03-07T21:31:25.139Z,99250.53
2023-03-07T21:33:55.111Z,99242.75
2023-03-07T21:36:23.367Z,99242.72
2023-03-07T21:38:50.268Z,99265.06
2023-03-07T21:41:19.108Z,99259.03
2023-03-07T21:43:46.094Z,99262.47
2023-03-07T21:46:14.144Z,99276.16
2023-03-07T21:48:42.022Z,99271.84
2023-03-07T21:51:09.504Z,99285.53
2023-03-07T21:53:37.148Z,99287.25
2023-03-07T21:56:08.096Z,99285.53
2023-03-07T21:58:36.698Z,99298.38
2023-03-07T22:01:16.443Z,99303.53
2023-03-07T22:03:43.789Z,99311.19
2023-03-07T22:06:13.951Z,99313.78
2023-03-07T22:08:41.440Z,99311.13
2023-03-07T22:11:10.267Z,99312.03
2023-03-07T22:13:40.190Z,99315.41
2023-03-07T22:16:20.493Z,99317.09
2023-03-07T22:18:53.614Z,99323.06
2023-03-07T22:21:21.226Z,99329.03
2023-03-07T22:23:48.106Z,99327.31
2023-03-07T22:26:15.043Z,99329.00
2023-03-07T22:28:42.221Z,99332.41
2023-03-07T22:31:12.240Z,99334.97
2023-03-07T22:33:40.694Z,99332.38
2023-03-07T22:36:11.272Z,99335.72
2023-03-07T22:38:38.474Z,99341.72
2023-03-07T22:41:12.346Z,99336.50
2023-03-07T22:43:39.333Z,99345.94
2023-03-07T22:46:07.300Z,99345.06
2023-03-07T22:48:35.332Z,99346.72
2023-03-07T22:51:02.496Z,99345.88
2023-03-07T22:53:33.423Z,99342.38
2023-03-07T22:56:01.066Z,99341.44
2023-03-07T22:58:29.348Z,99357.75
2023-03-07T23:00:56.293Z,99352.56
2023-03-07T23:03:23.438Z,99355.13
2023-03-07T23:05:50.728Z,99358.53
2023-03-07T23:08:17.691Z,99344.69
2023-03-07T23:10:44.663Z,99364.47
2023-03-07T23:13:11.537Z,99354.97
2023-03-07T23:15:41.645Z,99360.09
2023-03-07T23:18:08.764Z,99366.91
2023-03-07T23:20:38.854Z,99368.63
2023-03-07T23:23:06.399Z,99365.97
2023-03-07T23:25:33.443Z,99367.72
2023-03-07T23:28:00.458Z,99359.00
2023-03-07T23:30:27.373Z,99370.22
2023-03-07T23:32:55.199Z,99375.34
2023-03-07T23:35:22.136Z,99381.28
2023-03-07T23:37:49.007Z,99378.72
2023-03-07T23:40:15.908Z,99376.09
2023-03-07T23:42:42.873Z,99386.34
2023-03-07T23:45:10.097Z,99387.16
2023-03-07T23:47:37.072Z,99397.41
2023-03-07T23:50:04.231Z,99391.38
2023-03-07T23:52:31.115Z,99392.19
2023-03-07T23:54:57.995Z,99398.13
2023-03-07T23:57:24.873Z,99398.94
2023-03-07T23:59:52.084Z,99398.91
